createdAt,value
2022-08-03T00:01:24.032Z,76.90
2022-08-03T00:03:51.268Z,76.90
2022-08-03T00:06:18.571Z,76.80
2022-08-03T00:08:45.822Z,76.70
2022-08-03T00:11:12.869Z,76.50
2022-08-03T00:13:40.097Z,76.50
2022-08-03T00:16:07.282Z,76.30
2022-08-03T00:18:34.331Z,76.40
2022-08-03T00:21:01.887Z,76.30
2022-08-03T00:23:50.896Z,76.20
2022-08-03T00:26:16.165Z,76.00
2022-08-03T00:28:43.312Z,76.10
2022-08-03T00:31:13.513Z,76.50
2022-08-03T00:33:58.275Z,76.90
2022-08-03T00:36:27.403Z,77.10
2022-08-03T00:38:54.894Z,77.30
2022-08-03T00:41:22.349Z,77.10
2022-08-03T00:43:49.483Z,77.20
2022-08-03T00:46:21.291Z,77.20
2022-08-03T00:48:52.100Z,77.50
2022-08-03T00:51:20.010Z,77.60
2022-08-03T00:53:47.419Z,77.80
2022-08-03T00:56:15.333Z,78.00
2022-08-03T00:58:44.209Z,77.90
2022-08-03T01:01:12.364Z,77.80
2022-08-03T01:03:39.782Z,77.80
2022-08-03T01:06:17.387Z,77.80
2022-08-03T01:08:48.491Z,78.10
2022-08-03T01:11:35.839Z,78.10
2022-08-03T01:14:30.989Z,78.40
2022-08-03T01:17:03.874Z,78.20
2022-08-03T01:19:40.053Z,78.00
2022-08-03T01:22:26.013Z,77.80
2022-08-03T01:25:11.736Z,77.80
2022-08-03T01:27:41.630Z,77.80
2022-08-03T01:30:09.513Z,77.80
2022-08-03T01:33:00.679Z,77.70
2022-08-03T01:35:47.745Z,77.60
2022-08-03T01:38:34.127Z,77.50
2022-08-03T01:41:05.920Z,77.60
2022-08-03T01:43:58.925Z,77.60
2022-08-03T01:46:21.777Z,77.60
2022-08-03T01:48:49.533Z,77.70
2022-08-03T01:51:18.368Z,77.80
2022-08-03T01:53:46.925Z,77.90
2022-08-03T01:56:14.374Z,78.00
2022-08-03T01:58:41.999Z,78.00
2022-08-03T02:01:10.149Z,78.10
2022-08-03T02:04:00.935Z,78.20
2022-08-03T02:06:59.926Z,78.20
2022-08-03T02:09:15.298Z,78.30
2022-08-03T02:11:42.668Z,78.30
2022-08-03T02:14:10.568Z,78.30
2022-08-03T02:16:37.715Z,78.30
2022-08-03T02:19:06.450Z,78.30
2022-08-03T02:21:55.817Z,78.30
2022-08-03T02:24:22.687Z,78.30
2022-08-03T02:26:51.388Z,78.20
2022-08-03T02:29:39.887Z,78.20
2022-08-03T02:32:13.900Z,78.10
2022-08-03T02:34:42.758Z,78.00
2022-08-03T02:37:10.410Z,78.00
2022-08-03T02:39:39.358Z,78.10
2022-08-03T02:42:08.589Z,78.20
2022-08-03T02:44:37.573Z,78.20
2022-08-03T02:47:07.463Z,78.30
2022-08-03T02:49:50.991Z,78.20
2022-08-03T02:52:23.684Z,78.30
2022-08-03T02:54:52.766Z,78.30
2022-08-03T02:57:21.276Z,78.40
2022-08-03T02:59:48.878Z,78.40
2022-08-03T03:02:17.210Z,78.40
2022-08-03T03:05:51.573Z,78.60
2022-08-03T03:07:34.682Z,78.60
2022-08-03T03:10:20.841Z,78.50
2022-08-03T03:12:48.428Z,78.50
2022-08-03T03:15:15.621Z,78.50
2022-08-03T03:17:43.192Z,78.40
2022-08-03T03:20:10.703Z,78.30
2022-08-03T03:22:38.142Z,78.30
2022-08-03T03:25:07.561Z,78.20
2022-08-03T03:27:34.693Z,78.00
2022-08-03T03:30:02.422Z,77.90
2022-08-03T03:32:29.795Z,77.70
2022-08-03T03:34:59.137Z,77.60
2022-08-03T03:37:26.696Z,77.50
2022-08-03T03:39:54.643Z,77.50
2022-08-03T03:42:22.099Z,77.50
2022-08-03T03:44:49.249Z,77.50
2022-08-03T03:47:16.658Z,77.50
2022-08-03T03:49:44.085Z,77.50
2022-08-03T03:52:11.163Z,77.50
2022-08-03T03:54:42.227Z,77.60
2022-08-03T03:57:13.678Z,77.60
2022-08-03T03:59:41.573Z,77.50
2022-08-03T04:02:09.280Z,77.60
2022-08-03T04:04:56.212Z,77.60
2022-08-03T04:07:42.585Z,77.60
2022-08-03T04:10:31.600Z,77.80
2022-08-03T04:13:00.461Z,78.30
2022-08-03T04:15:28.523Z,77.90
2022-08-03T04:17:57.876Z,77.90
2022-08-03T04:20:27.884Z,78.00
2022-08-03T04:22:56.589Z,78.20
2022-08-03T04:25:25.425Z,78.30
2022-08-03T04:28:19.687Z,78.30
2022-08-03T04:30:47.745Z,78.20
2022-08-03T04:33:16.337Z,78.20
2022-08-03T04:36:01.438Z,78.30
2022-08-03T04:38:30.515Z,78.40
2022-08-03T04:40:57.856Z,78.30
2022-08-03T04:43:25.262Z,78.30
2022-08-03T04:45:53.102Z,78.40
2022-08-03T04:48:20.630Z,78.50
2022-08-03T04:50:48.016Z,78.50
2022-08-03T04:53:16.476Z,78.70
2022-08-03T04:55:43.608Z,78.90
2022-08-03T04:58:10.821Z,79.60
2022-08-03T05:00:38.037Z,79.10
2022-08-03T05:03:23.898Z,79.20
2022-08-03T05:05:52.158Z,79.30
2022-08-03T05:08:27.897Z,79.30
2022-08-03T05:10:59.090Z,79.30
2022-08-03T05:13:26.680Z,79.40
2022-08-03T05:15:53.791Z,79.40
2022-08-03T05:18:20.992Z,79.50
2022-08-03T05:20:48.150Z,79.50
2022-08-03T05:23:15.344Z,79.40
2022-08-03T05:25:49.735Z,79.30
2022-08-03T05:28:17.326Z,79.00
2022-08-03T05:30:44.772Z,78.80
2022-08-03T05:33:11.898Z,79.50
2022-08-03T05:35:56.236Z,80.30
2022-08-03T05:38:34.186Z,80.30
2022-08-03T05:41:22.294Z,80.80
2022-08-03T05:43:51.346Z,81.00
2022-08-03T05:46:18.385Z,81.30
2022-08-03T05:48:45.516Z,81.40
2022-08-03T05:51:13.361Z,81.80
2022-08-03T05:53:41.252Z,81.50
2022-08-03T05:56:13.908Z,81.00
2022-08-03T05:58:43.748Z,80.70
2022-08-03T06:01:10.868Z,80.50
2022-08-03T06:03:37.977Z,80.30
2022-08-03T06:06:05.092Z,80.20
2022-08-03T06:08:32.185Z,80.20
2022-08-03T06:10:59.486Z,80.20
2022-08-03T06:13:26.564Z,80.20
2022-08-03T06:15:53.661Z,80.10
2022-08-03T06:18:20.750Z,80.10
2022-08-03T06:20:49.390Z,80.20
2022-08-03T06:23:18.101Z,80.20
2022-08-03T06:25:45.884Z,80.20
2022-08-03T06:28:35.257Z,80.10
2022-08-03T06:31:01.946Z,80.20
2022-08-03T06:34:31.356Z,80.20
2022-08-03T06:36:16.375Z,80.20
2022-08-03T06:38:43.410Z,80.30
2022-08-03T06:41:10.467Z,80.20
2022-08-03T06:43:37.940Z,80.20
2022-08-03T06:46:24.890Z,80.20
2022-08-03T06:48:53.205Z,80.30
2022-08-03T06:51:20.362Z,80.30
2022-08-03T06:53:47.478Z,80.30
2022-08-03T06:56:14.586Z,80.40
2022-08-03T06:58:41.778Z,80.40
2022-08-03T07:01:08.968Z,80.40
2022-08-03T07:03:36.399Z,80.50
2022-08-03T07:06:19.154Z,80.50
2022-08-03T07:08:48.520Z,80.60
2022-08-03T07:11:18.621Z,80.50
2022-08-03T07:13:46.590Z,80.60
2022-08-03T07:16:13.637Z,80.70
2022-08-03T07:18:40.734Z,80.70
2022-08-03T07:21:09.280Z,80.80
2022-08-03T07:23:36.348Z,80.80
2022-08-03T07:26:03.460Z,80.90
2022-08-03T07:28:30.781Z,81.00
2022-08-03T07:30:57.886Z,81.00
2022-08-03T07:33:24.990Z,81.60
2022-08-03T07:35:52.200Z,81.60
2022-08-03T07:38:21.205Z,82.50
2022-08-03T07:40:48.585Z,82.60
2022-08-03T07:43:15.702Z,83.00
2022-08-03T07:45:42.844Z,83.50
2022-08-03T07:48:12.379Z,84.50
2022-08-03T07:50:40.401Z,85.20
2022-08-03T07:53:07.457Z,86.40
2022-08-03T07:55:35.141Z,86.80
2022-08-03T07:58:03.934Z,87.40
2022-08-03T08:00:31.448Z,88.40
2022-08-03T08:02:58.528Z,89.10
2022-08-03T08:05:26.092Z,89.10
2022-08-03T08:07:53.161Z,89.80
2022-08-03T08:10:20.445Z,90.10
2022-08-03T08:12:47.672Z,90.30
2022-08-03T08:15:14.764Z,90.50
2022-08-03T08:17:42.938Z,90.80
2022-08-03T08:20:11.003Z,90.90
2022-08-03T08:22:38.117Z,90.90
2022-08-03T08:25:07.798Z,91.10
2022-08-03T08:28:29.507Z,91.10
2022-08-03T08:30:28.236Z,91.00
2022-08-03T08:32:59.569Z,90.90
2022-08-03T08:35:26.768Z,91.10
2022-08-03T08:37:53.829Z,91.10
2022-08-03T08:40:22.401Z,91.30
2022-08-03T08:42:58.751Z,91.20
2022-08-03T08:45:26.690Z,91.30
2022-08-03T08:47:59.762Z,91.40
2022-08-03T08:50:29.630Z,91.10
2022-08-03T08:53:00.138Z,90.90
2022-08-03T08:55:27.313Z,91.00
2022-08-03T08:57:59.352Z,90.80
2022-08-03T09:00:26.560Z,90.80
2022-08-03T09:02:53.755Z,90.70
2022-08-03T09:05:31.671Z,90.50
2022-08-03T09:08:08.993Z,90.40
2022-08-03T09:10:36.097Z,90.40
2022-08-03T09:13:03.181Z,90.40
2022-08-03T09:15:31.760Z,90.60
2022-08-03T09:17:59.803Z,90.70
2022-08-03T09:20:30.530Z,90.70
2022-08-03T09:22:57.672Z,90.70
2022-08-03T09:25:28.953Z,90.80
2022-08-03T09:28:03.796Z,90.70
2022-08-03T09:30:34.391Z,91.00
2022-08-03T09:33:02.925Z,91.10
2022-08-03T09:38:18.357Z,90.90
2022-08-03T09:40:46.196Z,90.80
2022-08-03T09:43:14.360Z,90.70
2022-08-03T09:45:42.496Z,90.70
2022-08-03T09:48:23.132Z,90.90
2022-08-03T09:50:58.807Z,91.00
2022-08-03T09:53:58.482Z,91.20
2022-08-03T09:56:38.955Z,91.50
2022-08-03T09:59:06.144Z,91.80
2022-08-03T10:01:34.806Z,91.80
2022-08-03T10:04:03.803Z,92.20
2022-08-03T10:06:31.724Z,92.10
2022-08-03T10:09:08.984Z,92.40
2022-08-03T10:11:41.152Z,93.40
2022-08-03T10:14:10.375Z,94.60
2022-08-03T10:16:38.422Z,94.00
2022-08-03T10:19:07.569Z,93.80
2022-08-03T10:21:35.590Z,93.80
2022-08-03T10:24:03.992Z,93.60
2022-08-03T10:26:32.414Z,93.60
2022-08-03T10:29:01.421Z,93.20
2022-08-03T10:31:34.660Z,93.00
2022-08-03T10:34:02.137Z,92.70
2022-08-03T10:36:31.776Z,92.50
2022-08-03T10:39:00.773Z,92.20
2022-08-03T10:41:32.322Z,91.80
2022-08-03T10:44:08.092Z,91.60
2022-08-03T10:46:38.368Z,91.50
2022-08-03T10:49:09.150Z,91.30
2022-08-03T10:51:36.350Z,91.20
2022-08-03T10:54:03.972Z,91.10
2022-08-03T10:56:54.491Z,91.00
2022-08-03T10:59:40.413Z,91.00
2022-08-03T11:02:10.147Z,90.90
2022-08-03T11:04:37.262Z,90.90
2022-08-03T11:07:19.762Z,90.80
2022-08-03T11:09:54.491Z,90.80
2022-08-03T11:12:30.780Z,90.70
2022-08-03T11:15:01.010Z,90.60
2022-08-03T11:17:28.062Z,90.60
2022-08-03T11:19:56.632Z,90.60
2022-08-03T11:22:25.494Z,90.50
2022-08-03T11:24:56.314Z,90.40
2022-08-03T11:27:35.681Z,90.30
2022-08-03T11:30:05.696Z,90.30
2022-08-03T11:32:53.077Z,90.20
2022-08-03T11:35:21.613Z,90.20
2022-08-03T11:38:03.003Z,90.10
2022-08-03T11:40:32.133Z,90.10
2022-08-03T11:42:59.208Z,90.00
2022-08-03T11:45:26.370Z,90.00
2022-08-03T11:47:54.296Z,89.90
2022-08-03T11:50:21.693Z,89.80
2022-08-03T11:52:49.281Z,89.70
2022-08-03T11:55:18.849Z,89.60
2022-08-03T11:59:01.264Z,89.50
2022-08-03T12:00:34.214Z,89.40
2022-08-03T12:03:04.142Z,89.30
2022-08-03T12:05:40.504Z,89.20
2022-08-03T12:08:08.365Z,89.10
2022-08-03T12:10:35.844Z,89.00
2022-08-03T12:13:05.884Z,88.90
2022-08-03T12:15:54.098Z,88.90
2022-08-03T12:18:22.400Z,88.90
2022-08-03T12:20:50.509Z,88.80
2022-08-03T12:23:17.796Z,88.60
2022-08-03T12:25:45.926Z,88.50
2022-08-03T12:28:35.962Z,88.70
2022-08-03T12:31:06.184Z,89.00
2022-08-03T12:33:53.185Z,89.30
2022-08-03T12:36:20.445Z,89.90
2022-08-03T12:38:54.590Z,89.80
2022-08-03T12:41:27.693Z,90.40
2022-08-03T12:43:55.055Z,90.30
2022-08-03T12:46:22.258Z,90.60
2022-08-03T12:48:59.490Z,90.70
2022-08-03T12:51:27.474Z,90.70
2022-08-03T12:53:55.309Z,91.00
2022-08-03T12:56:22.579Z,91.10
2022-08-03T12:58:53.112Z,91.10
2022-08-03T13:01:22.529Z,91.10
2022-08-03T13:03:52.843Z,91.10
2022-08-03T13:06:21.550Z,91.00
2022-08-03T13:08:49.192Z,91.00
2022-08-03T13:11:55.827Z,90.90
2022-08-03T13:14:16.801Z,90.80
2022-08-03T13:16:47.446Z,90.60
2022-08-03T13:19:15.471Z,90.50
2022-08-03T13:22:01.632Z,90.90
2022-08-03T13:24:31.920Z,91.20
2022-08-03T13:26:59.540Z,91.30
2022-08-03T13:29:26.576Z,91.50
2022-08-03T13:31:53.744Z,91.50
2022-08-03T13:34:23.436Z,91.70
2022-08-03T13:37:19.772Z,92.10
2022-08-03T13:39:58.432Z,92.10
2022-08-03T13:42:26.329Z,92.00
2022-08-03T13:44:53.421Z,91.70
2022-08-03T13:47:20.898Z,92.00
2022-08-03T13:50:00.072Z,92.50
2022-08-03T13:52:35.635Z,92.80
2022-08-03T13:55:04.095Z,92.90
2022-08-03T13:58:03.796Z,93.30
2022-08-03T14:00:26.984Z,93.40
2022-08-03T14:03:17.604Z,93.50
2022-08-03T14:05:44.874Z,93.60
2022-08-03T14:08:12.038Z,93.90
2022-08-03T14:10:41.301Z,94.20
2022-08-03T14:13:08.923Z,94.30
2022-08-03T14:15:37.619Z,94.20
2022-08-03T14:18:06.374Z,93.90
2022-08-03T14:20:36.898Z,93.80
2022-08-03T14:23:14.905Z,93.70
2022-08-03T14:25:43.424Z,93.80
2022-08-03T14:28:22.526Z,93.80
2022-08-03T14:30:50.589Z,93.80
2022-08-03T14:33:17.834Z,93.80
2022-08-03T14:35:44.919Z,93.80
2022-08-03T14:38:12.019Z,93.80
2022-08-03T14:40:39.095Z,93.80
2022-08-03T14:43:06.204Z,93.80
2022-08-03T14:45:34.425Z,93.80
2022-08-03T14:50:29.094Z,93.70
2022-08-03T14:50:51.619Z,93.60
2022-08-03T14:53:19.479Z,93.40
2022-08-03T14:55:49.553Z,93.40
2022-08-03T14:58:21.047Z,93.40
2022-08-03T15:00:49.213Z,93.20
2022-08-03T15:03:17.409Z,93.20
2022-08-03T15:05:44.736Z,93.30
2022-08-03T15:08:11.843Z,93.20
2022-08-03T15:10:44.425Z,93.10
2022-08-03T15:13:13.451Z,93.00
2022-08-03T15:15:40.873Z,92.90
2022-08-03T15:18:08.306Z,92.90
2022-08-03T15:20:51.075Z,92.80
2022-08-03T15:23:18.665Z,92.80
2022-08-03T15:26:32.315Z,92.60
2022-08-03T15:28:33.461Z,92.60
2022-08-03T15:31:00.951Z,92.50
2022-08-03T15:33:28.604Z,92.90
2022-08-03T15:35:56.472Z,92.70
2022-08-03T15:38:25.683Z,92.60
2022-08-03T15:40:56.197Z,92.40
2022-08-03T15:43:23.968Z,91.70
2022-08-03T15:46:12.886Z,90.90
2022-08-03T15:48:38.700Z,90.30
2022-08-03T15:51:06.064Z,88.20
2022-08-03T15:53:33.641Z,88.40
2022-08-03T15:56:02.553Z,87.60
2022-08-03T15:59:09.356Z,86.70
2022-08-03T16:01:20.460Z,86.20
2022-08-03T16:03:49.503Z,86.10
2022-08-03T16:06:16.785Z,85.10
2022-08-03T16:08:56.698Z,84.80
2022-08-03T16:11:23.880Z,85.00
2022-08-03T16:14:13.179Z,85.00
2022-08-03T16:16:40.844Z,85.20
2022-08-03T16:19:08.080Z,85.30
2022-08-03T16:21:45.931Z,85.00
2022-08-03T16:24:19.741Z,85.30
2022-08-03T16:26:51.485Z,85.60
2022-08-03T16:29:23.209Z,85.20
2022-08-03T16:31:51.948Z,84.20
2022-08-03T16:34:19.982Z,84.20
2022-08-03T16:36:47.134Z,84.00
2022-08-03T16:39:14.395Z,83.90
2022-08-03T16:41:54.143Z,84.10
2022-08-03T16:44:29.420Z,83.10
2022-08-03T16:46:56.613Z,83.20
2022-08-03T16:49:53.662Z,83.70
2022-08-03T16:52:13.046Z,74.60
2022-08-03T16:54:40.619Z,71.50
2022-08-03T16:57:08.665Z,72.40
2022-08-03T16:59:36.714Z,70.50
2022-08-03T17:02:09.694Z,69.90
2022-08-03T17:04:40.183Z,70.50
2022-08-03T17:07:08.680Z,70.00
2022-08-03T17:09:38.645Z,68.90
2022-08-03T17:12:07.428Z,68.50
2022-08-03T17:14:38.797Z,68.40
2022-08-03T17:17:16.518Z,68.00
2022-08-03T17:19:47.321Z,67.90
2022-08-03T17:22:19.506Z,68.30
2022-08-03T17:24:49.866Z,67.50
2022-08-03T17:28:41.920Z,67.60
2022-08-03T17:30:08.073Z,67.90
2022-08-03T17:32:37.101Z,67.70
2022-08-03T17:35:10.398Z,67.60
2022-08-03T17:38:04.045Z,67.50
2022-08-03T17:40:25.235Z,67.40
2022-08-03T17:42:53.141Z,67.60
2022-08-03T17:45:20.642Z,67.40
2022-08-03T17:47:57.166Z,67.10
2022-08-03T17:50:44.181Z,67.40
2022-08-03T17:53:23.776Z,67.40
2022-08-03T17:56:04.840Z,67.30
2022-08-03T17:58:41.475Z,67.20
2022-08-03T18:02:03.199Z,67.70
2022-08-03T18:04:21.670Z,67.90
2022-08-03T18:06:59.325Z,69.00
2022-08-03T18:10:04.729Z,67.90
2022-08-03T18:12:18.498Z,67.50
2022-08-03T18:14:57.707Z,67.50
2022-08-03T18:18:01.639Z,67.80
2022-08-03T18:20:32.222Z,67.60
2022-08-03T18:23:08.794Z,67.70
2022-08-03T18:25:45.490Z,67.60
2022-08-03T18:28:18.527Z,68.10
2022-08-03T18:30:53.080Z,68.50
2022-08-03T18:34:17.505Z,68.40
2022-08-03T18:36:17.421Z,68.70
2022-08-03T18:38:46.693Z,71.00
2022-08-03T18:41:20.707Z,70.50
2022-08-03T18:44:08.612Z,71.60
2022-08-03T18:46:42.139Z,71.90
2022-08-03T18:49:19.093Z,72.90
2022-08-03T18:51:46.637Z,72.60
2022-08-03T18:54:45.668Z,72.80
2022-08-03T18:57:09.281Z,72.80
2022-08-03T18:59:55.149Z,72.60
2022-08-03T19:02:38.233Z,74.00
2022-08-03T19:05:07.577Z,71.50
2022-08-03T19:07:36.042Z,70.90
2022-08-03T19:10:05.484Z,70.20
2022-08-03T19:12:51.281Z,70.30
2022-08-03T19:18:10.943Z,72.80
2022-08-03T19:20:38.348Z,72.40
2022-08-03T19:23:06.589Z,71.10
2022-08-03T19:25:37.617Z,72.70
2022-08-03T19:28:06.081Z,73.40
2022-08-03T19:30:38.791Z,72.50
2022-08-03T19:33:10.980Z,71.50
2022-08-03T19:35:55.051Z,72.10
2022-08-03T19:38:28.689Z,71.40
2022-08-03T19:40:58.253Z,71.40
2022-08-03T19:43:53.294Z,71.40
2022-08-03T19:46:30.633Z,70.90
2022-08-03T19:49:10.416Z,71.50
2022-08-03T19:52:01.113Z,73.70
2022-08-03T19:54:35.145Z,74.00
2022-08-03T19:57:02.509Z,74.70
2022-08-03T19:59:35.933Z,73.60
2022-08-03T20:02:09.293Z,72.70
2022-08-03T20:04:53.881Z,73.50
2022-08-03T20:07:22.850Z,73.80
2022-08-03T20:09:56.161Z,72.60
2022-08-03T20:12:28.590Z,73.40
2022-08-03T20:14:59.276Z,72.80
2022-08-03T20:20:21.067Z,73.50
2022-08-03T20:22:53.029Z,73.50
2022-08-03T20:25:39.443Z,74.10
2022-08-03T20:28:26.803Z,74.60
2022-08-03T20:30:54.041Z,74.40
2022-08-03T20:33:34.580Z,75.10
2022-08-03T20:36:08.922Z,74.60
2022-08-03T20:38:40.931Z,74.40
2022-08-03T20:41:11.114Z,74.60
2022-08-03T20:43:40.924Z,74.50
2022-08-03T20:46:30.813Z,74.70
2022-08-03T20:48:57.158Z,74.70
2022-08-03T20:51:50.068Z,74.90
2022-08-03T20:54:29.423Z,74.60
2022-08-03T20:57:07.002Z,74.50
2022-08-03T20:59:50.383Z,74.10
2022-08-03T21:02:30.018Z,74.40
2022-08-03T21:04:59.143Z,74.30
2022-08-03T21:08:03.975Z,74.40
2022-08-03T21:10:24.720Z,74.10
2022-08-03T21:13:01.803Z,71.60
2022-08-03T21:13:03.794Z,73.00
2022-08-03T21:13:15.443Z,73.90
2022-08-03T21:16:06.493Z,73.80
2022-08-03T21:18:36.280Z,73.90
2022-08-03T21:21:03.808Z,74.00
2022-08-03T21:23:40.080Z,74.00
2022-08-03T21:26:16.626Z,73.90
2022-08-03T21:28:45.167Z,74.00
2022-08-03T21:31:13.125Z,74.10
2022-08-03T21:33:40.909Z,74.30
2022-08-03T21:36:11.606Z,74.50
2022-08-03T21:38:39.880Z,74.50
2022-08-03T21:41:08.729Z,74.60
2022-08-03T21:43:35.976Z,74.30
2022-08-03T21:46:04.057Z,74.30
2022-08-03T21:48:35.996Z,74.30
2022-08-03T21:51:03.863Z,74.30
2022-08-03T21:54:00.351Z,74.40
2022-08-03T21:56:20.370Z,74.50
2022-08-03T21:58:54.515Z,74.10
2022-08-03T22:01:23.693Z,74.60
2022-08-03T22:03:54.048Z,75.10
2022-08-03T22:06:22.097Z,75.30
2022-08-03T22:08:50.469Z,75.30
2022-08-03T22:11:17.583Z,75.80
2022-08-03T22:13:44.832Z,75.50
2022-08-03T22:16:13.372Z,75.40
2022-08-03T22:18:41.629Z,75.40
2022-08-03T22:21:12.832Z,75.20
2022-08-03T22:23:41.460Z,75.20
2022-08-03T22:26:12.098Z,75.10
2022-08-03T22:28:39.888Z,75.10
2022-08-03T22:31:56.911Z,75.00
2022-08-03T22:33:54.999Z,74.90
2022-08-03T22:36:23.858Z,75.00
2022-08-03T22:38:52.004Z,75.00
2022-08-03T22:41:19.747Z,74.90
2022-08-03T22:43:46.939Z,75.00
2022-08-03T22:46:18.664Z,75.00
2022-08-03T22:48:46.499Z,75.70
2022-08-03T22:51:15.181Z,75.20
2022-08-03T22:53:44.728Z,75.10
2022-08-03T22:56:12.476Z,75.00
2022-08-03T22:58:39.701Z,75.00
2022-08-03T23:01:08.267Z,75.10
2022-08-03T23:03:59.782Z,75.20
2022-08-03T23:06:27.692Z,75.20
2022-08-03T23:08:55.137Z,75.20
2022-08-03T23:11:23.823Z,75.30
2022-08-03T23:13:53.329Z,75.30
2022-08-03T23:16:28.977Z,75.30
2022-08-03T23:18:58.745Z,75.20
2022-08-03T23:22:00.199Z,75.30
2022-08-03T23:24:26.013Z,75.20
2022-08-03T23:26:58.146Z,75.20
2022-08-03T23:29:26.137Z,75.20
2022-08-03T23:31:53.595Z,75.20
2022-08-03T23:34:39.754Z,75.20
2022-08-03T23:37:06.884Z,75.20
2022-08-03T23:39:35.256Z,75.20
2022-08-03T23:42:03.045Z,75.20
2022-08-03T23:44:31.206Z,75.20
2022-08-03T23:46:58.309Z,75.30
2022-08-03T23:49:25.424Z,75.20
2022-08-03T23:51:59.683Z,75.40
2022-08-03T23:54:45.387Z,75.30
2022-08-03T23:57:22.605Z,75.40
